createdAt,value
2018-11-22T00:00:25.218Z,32.07
2018-11-22T00:03:08.031Z,29.77
2018-11-22T00:05:50.891Z,29.50
2018-11-22T00:08:32.600Z,28.17
2018-11-22T00:11:14.429Z,29.00
2018-11-22T00:13:56.498Z,26.67
2018-11-22T00:16:38.790Z,29.17
2018-11-22T00:19:20.207Z,29.27
2018-11-22T00:22:02.095Z,28.07
2018-11-22T00:24:44.189Z,25.17
2018-11-22T00:27:25.771Z,25.37
2018-11-22T00:30:07.533Z,25.27
2018-11-22T00:32:48.711Z,25.33
2018-11-22T00:35:31.780Z,25.17
2018-11-22T00:38:13.366Z,26.50
2018-11-22T00:40:54.933Z,26.47
2018-11-22T00:43:37.036Z,27.33
2018-11-22T00:46:18.904Z,27.77
2018-11-22T00:49:00.572Z,27.80
2018-11-22T00:51:42.216Z,28.07
2018-11-22T00:54:23.600Z,29.03
2018-11-22T00:57:07.002Z,29.40
2018-11-22T00:59:49.278Z,29.20
2018-11-22T01:02:32.216Z,29.07
2018-11-22T01:05:13.996Z,29.40
2018-11-22T01:07:56.410Z,27.87
2018-11-22T01:10:38.793Z,28.07
2018-11-22T01:13:21.681Z,27.80
2018-11-22T01:16:04.536Z,26.23
2018-11-22T01:18:47.383Z,26.10
2018-11-22T01:21:30.488Z,27.73
2018-11-22T01:24:13.003Z,27.77
2018-11-22T01:26:55.868Z,27.40
2018-11-22T01:29:38.771Z,25.87
2018-11-22T01:32:21.308Z,26.30
2018-11-22T01:35:02.975Z,26.30
2018-11-22T01:37:44.222Z,27.27
2018-11-22T01:40:26.385Z,26.13
2018-11-22T01:43:07.389Z,26.77
2018-11-22T01:45:49.571Z,24.77
2018-11-22T01:48:30.260Z,27.10
2018-11-22T01:51:12.163Z,25.97
2018-11-22T01:53:52.808Z,28.47
2018-11-22T01:56:34.773Z,26.53
2018-11-22T01:59:15.786Z,27.40
2018-11-22T02:01:58.233Z,28.23
2018-11-22T02:04:39.032Z,28.03
2018-11-22T02:07:21.188Z,26.30
2018-11-22T02:10:02.372Z,25.53
2018-11-22T02:12:44.368Z,26.03
2018-11-22T02:15:28.002Z,27.50
2018-11-22T02:18:09.713Z,29.70
2018-11-22T02:20:50.409Z,26.83
2018-11-22T02:23:31.632Z,29.00
2018-11-22T02:26:12.391Z,31.60
2018-11-22T02:28:54.211Z,28.00
2018-11-22T02:31:35.289Z,26.87
2018-11-22T02:34:17.389Z,27.57
2018-11-22T02:36:58.046Z,26.70
2018-11-22T02:39:39.765Z,26.77
2018-11-22T02:42:21.699Z,26.33
2018-11-22T02:45:03.571Z,27.17
2018-11-22T02:47:45.416Z,27.23
2018-11-22T02:50:27.755Z,25.77
2018-11-22T02:53:09.757Z,26.63
2018-11-22T02:55:51.542Z,27.70
2018-11-22T02:58:32.397Z,27.03
2018-11-22T03:01:14.294Z,27.63
2018-11-22T03:03:55.237Z,27.47
2018-11-22T03:06:37.135Z,27.10
2018-11-22T03:09:18.612Z,26.83
2018-11-22T03:15:25.480Z,25.73
2018-11-22T03:18:07.147Z,26.97
2018-11-22T03:20:48.712Z,26.93
2018-11-22T03:23:32.093Z,26.50
2018-11-22T03:26:14.340Z,25.27
2018-11-22T03:28:55.674Z,27.23
2018-11-22T03:31:37.413Z,27.10
2018-11-22T03:34:19.694Z,35.53
2018-11-22T03:37:01.376Z,36.83
2018-11-22T03:39:43.176Z,38.50
2018-11-22T03:42:23.877Z,34.97
2018-11-22T03:45:06.050Z,35.33
2018-11-22T03:47:46.652Z,33.07
2018-11-22T03:50:28.934Z,31.80
2018-11-22T03:53:09.910Z,30.73
2018-11-22T03:55:51.895Z,33.57
2018-11-22T03:58:32.610Z,28.23
2018-11-22T04:01:14.132Z,28.60
2018-11-22T04:03:55.715Z,27.00
2018-11-22T04:06:38.268Z,27.20
2018-11-22T04:09:20.040Z,27.67
2018-11-22T04:14:44.017Z,25.23
2018-11-22T04:17:25.461Z,25.47
2018-11-22T04:20:07.352Z,26.17
2018-11-22T04:22:50.660Z,26.93
2018-11-22T04:25:36.784Z,26.57
2018-11-22T04:28:21.366Z,28.17
2018-11-22T04:31:03.849Z,26.53
2018-11-22T04:33:47.013Z,25.00
2018-11-22T04:36:30.309Z,27.50
2018-11-22T04:39:12.800Z,30.62
2018-11-22T04:41:55.803Z,28.43
2018-11-22T04:44:39.309Z,28.60
2018-11-22T04:47:22.741Z,32.73
2018-11-22T04:50:06.491Z,28.37
2018-11-22T04:52:49.488Z,31.97
2018-11-22T04:55:32.823Z,27.90
2018-11-22T04:58:15.892Z,27.17
2018-11-22T05:00:58.896Z,25.70
2018-11-22T05:03:41.868Z,23.53
2018-11-22T05:06:24.971Z,24.23
2018-11-22T05:09:08.241Z,25.30
2018-11-22T05:11:50.152Z,24.00
2018-11-22T05:14:31.921Z,24.53
2018-11-22T05:17:14.713Z,24.37
2018-11-22T05:19:56.797Z,24.53
2018-11-22T05:22:39.519Z,24.83
2018-11-22T05:25:21.258Z,24.63
2018-11-22T05:28:03.415Z,25.70
2018-11-22T05:30:45.617Z,24.13
2018-11-22T05:33:28.268Z,24.03
2018-11-22T05:36:10.136Z,25.10
2018-11-22T05:38:52.276Z,23.47
2018-11-22T05:41:34.176Z,24.10
2018-11-22T05:44:16.931Z,23.90
2018-11-22T05:47:02.627Z,25.33
2018-11-22T05:49:40.440Z,25.50
2018-11-22T05:52:24.737Z,30.23
2018-11-22T05:55:11.671Z,26.87
2018-11-22T05:57:53.236Z,27.77
2018-11-22T06:00:35.283Z,27.77
2018-11-22T06:03:17.328Z,28.50
2018-11-22T06:05:59.136Z,28.07
2018-11-22T06:08:40.018Z,26.57
2018-11-22T06:11:22.042Z,30.00
2018-11-22T06:14:02.802Z,31.37
2018-11-22T06:16:44.902Z,29.73
2018-11-22T06:19:25.947Z,31.00
2018-11-22T06:22:07.948Z,29.60
2018-11-22T06:24:48.616Z,29.47
2018-11-22T06:27:31.995Z,29.57
2018-11-22T06:30:18.099Z,29.73
2018-11-22T06:33:01.017Z,29.70
2018-11-22T06:35:42.066Z,29.87
2018-11-22T06:38:24.855Z,31.50
2018-11-22T06:41:06.661Z,33.43
2018-11-22T06:43:48.876Z,46.88
2018-11-22T06:46:30.728Z,43.17
2018-11-22T06:49:12.774Z,38.47
2018-11-22T06:51:55.605Z,34.87
2018-11-22T06:54:38.103Z,34.50
2018-11-22T06:57:19.755Z,34.00
2018-11-22T07:00:01.693Z,31.47
2018-11-22T07:02:43.662Z,32.17
2018-11-22T07:05:26.273Z,30.57
2018-11-22T07:08:07.396Z,34.20
2018-11-22T07:10:49.248Z,35.43
2018-11-22T07:13:30.043Z,32.97
2018-11-22T07:16:12.301Z,30.90
2018-11-22T07:18:54.285Z,33.10
2018-11-22T07:21:37.316Z,33.27
2018-11-22T07:24:18.193Z,34.43
2018-11-22T07:27:00.270Z,33.57
2018-11-22T07:29:42.002Z,35.30
2018-11-22T07:32:25.769Z,33.93
2018-11-22T07:35:07.541Z,35.53
2018-11-22T07:37:49.368Z,35.40
2018-11-22T07:40:29.975Z,37.90
2018-11-22T07:43:12.271Z,35.00
2018-11-22T07:45:53.629Z,33.30
2018-11-22T07:48:36.620Z,35.57
2018-11-22T07:51:18.825Z,35.93
2018-11-22T07:54:02.454Z,34.97
2018-11-22T07:56:44.370Z,35.50
2018-11-22T07:59:27.403Z,37.07
2018-11-22T08:02:11.030Z,39.07
2018-11-22T08:04:53.835Z,36.93
2018-11-22T08:07:37.052Z,37.20
2018-11-22T08:10:20.413Z,43.80
2018-11-22T08:13:08.181Z,45.67
2018-11-22T08:15:52.353Z,37.00
2018-11-22T08:18:34.788Z,39.67
2018-11-22T08:21:17.809Z,34.50
2018-11-22T08:24:00.831Z,38.67
2018-11-22T08:26:43.884Z,37.80
2018-11-22T08:29:25.085Z,35.67
2018-11-22T08:32:08.294Z,33.30
2018-11-22T08:34:53.125Z,34.60
2018-11-22T08:37:37.747Z,33.27
2018-11-22T08:40:18.780Z,34.33
2018-11-22T08:43:02.062Z,32.23
2018-11-22T08:45:44.135Z,33.43
2018-11-22T08:48:27.116Z,31.37
2018-11-22T08:51:08.384Z,30.47
2018-11-22T08:53:49.851Z,28.90
2018-11-22T08:56:32.909Z,30.97
2018-11-22T08:59:14.866Z,27.73
2018-11-22T09:01:55.495Z,28.37
2018-11-22T09:04:36.954Z,27.47
2018-11-22T09:07:17.668Z,31.50
2018-11-22T09:13:12.176Z,27.77
2018-11-22T09:15:55.194Z,28.13
2018-11-22T09:18:37.624Z,30.13
2018-11-22T09:21:23.101Z,33.53
2018-11-22T09:24:05.800Z,31.43
2018-11-22T09:26:51.627Z,30.10
2018-11-22T09:29:39.420Z,32.53
2018-11-22T09:32:17.803Z,30.90
2018-11-22T09:35:00.920Z,30.20
2018-11-22T09:37:43.520Z,28.70
2018-11-22T09:40:27.311Z,30.70
2018-11-22T09:43:09.084Z,27.97
2018-11-22T09:45:50.533Z,26.63
2018-11-22T09:48:32.207Z,28.47
2018-11-22T09:54:00.869Z,28.90
2018-11-22T09:56:43.972Z,27.23
2018-11-22T09:59:26.088Z,27.13
2018-11-22T10:02:08.156Z,26.40
2018-11-22T10:04:50.080Z,27.93
2018-11-22T10:07:32.609Z,28.47
2018-11-22T10:10:18.657Z,31.70
2018-11-22T10:13:10.871Z,30.23
2018-11-22T10:15:53.401Z,31.43
2018-11-22T10:18:35.940Z,29.60
2018-11-22T10:21:18.127Z,28.87
2018-11-22T10:24:00.686Z,25.27
2018-11-22T10:26:44.130Z,27.58
2018-11-22T10:29:26.451Z,26.67
2018-11-22T10:32:09.431Z,27.47
2018-11-22T10:34:54.091Z,26.37
2018-11-22T10:37:36.479Z,28.37
2018-11-22T10:40:21.099Z,28.70
2018-11-22T10:45:47.334Z,30.47
2018-11-22T10:48:29.724Z,29.03
2018-11-22T10:51:11.819Z,27.63
2018-11-22T10:53:53.404Z,27.43
2018-11-22T10:56:35.824Z,28.50
2018-11-22T10:59:16.831Z,28.67
2018-11-22T11:05:00.572Z,26.70
2018-11-22T11:08:05.069Z,28.70
2018-11-22T11:10:46.128Z,27.70
2018-11-22T11:13:28.762Z,29.70
2018-11-22T11:16:09.940Z,28.57
2018-11-22T11:18:52.333Z,27.53
2018-11-22T11:21:36.867Z,28.93
2018-11-22T11:24:19.954Z,29.00
2018-11-22T11:27:02.014Z,29.30
2018-11-22T11:29:45.050Z,29.87
2018-11-22T11:32:26.966Z,34.80
2018-11-22T11:35:10.793Z,30.13
2018-11-22T11:37:52.082Z,30.07
2018-11-22T11:40:36.483Z,29.53
2018-11-22T11:43:18.655Z,35.37
2018-11-22T11:46:00.994Z,31.40
2018-11-22T11:48:42.614Z,31.80
2018-11-22T11:51:25.457Z,31.55
2018-11-22T11:54:07.348Z,30.27
2018-11-22T11:56:50.261Z,30.43
2018-11-22T11:59:31.865Z,30.97
2018-11-22T12:02:15.348Z,32.23
2018-11-22T12:04:57.190Z,29.37
2018-11-22T12:07:38.964Z,30.40
2018-11-22T12:10:20.968Z,31.37
2018-11-22T12:13:04.946Z,30.20
2018-11-22T12:18:32.494Z,28.73
2018-11-22T12:24:12.213Z,24.27
2018-11-22T12:26:53.897Z,33.43
2018-11-22T12:29:35.580Z,35.00
2018-11-22T12:32:39.911Z,37.53
2018-11-22T12:35:21.260Z,39.83
2018-11-22T12:41:03.457Z,37.77
2018-11-22T12:43:45.902Z,38.40
2018-11-22T12:46:27.801Z,35.83
2018-11-22T12:49:10.394Z,37.13
2018-11-22T12:51:52.802Z,33.40
2018-11-22T12:54:36.204Z,30.40
2018-11-22T12:57:18.070Z,29.97
2018-11-22T13:00:00.942Z,32.07
2018-11-22T13:02:43.362Z,31.17
2018-11-22T13:05:26.354Z,31.63
2018-11-22T13:08:07.702Z,31.57
2018-11-22T13:10:49.580Z,29.10
2018-11-22T13:16:38.802Z,29.70
2018-11-22T13:22:05.682Z,30.70
2018-11-22T13:27:37.239Z,29.00
2018-11-22T13:33:10.077Z,27.60
2018-11-22T13:38:38.882Z,30.27
2018-11-22T13:44:06.731Z,29.87
2018-11-22T13:46:50.096Z,30.13
2018-11-22T13:49:32.309Z,29.53
2018-11-22T13:52:17.024Z,29.60
2018-11-22T13:54:58.489Z,29.93
2018-11-22T13:57:41.093Z,29.00
2018-11-22T14:00:24.016Z,28.03
2018-11-22T14:03:08.216Z,30.30
2018-11-22T14:05:50.969Z,32.47
2018-11-22T14:08:34.494Z,32.30
2018-11-22T14:11:16.536Z,34.27
2018-11-22T14:13:58.189Z,31.73
2018-11-22T14:16:40.696Z,30.73
2018-11-22T14:19:22.890Z,31.87
2018-11-22T14:22:04.706Z,34.80
2018-11-22T14:24:46.255Z,33.70
2018-11-22T14:27:28.508Z,34.40
2018-11-22T14:30:15.640Z,35.37
2018-11-22T14:32:57.649Z,36.13
2018-11-22T14:35:40.661Z,34.40
2018-11-22T14:38:22.278Z,34.27
2018-11-22T14:41:04.055Z,38.87
2018-11-22T14:43:45.592Z,33.07
2018-11-22T14:46:27.355Z,32.10
2018-11-22T14:49:08.156Z,31.87
2018-11-22T14:51:50.059Z,33.93
2018-11-22T14:54:31.907Z,33.20
2018-11-22T14:59:53.863Z,33.73
2018-11-22T15:02:35.444Z,33.03
2018-11-22T15:05:18.142Z,37.57
2018-11-22T15:07:59.966Z,34.97
2018-11-22T15:10:41.316Z,39.17
2018-11-22T15:13:24.067Z,37.47
2018-11-22T15:16:05.760Z,36.40
2018-11-22T15:18:47.607Z,36.70
2018-11-22T15:21:30.501Z,36.37
2018-11-22T15:24:12.682Z,38.03
2018-11-22T15:26:54.733Z,37.10
2018-11-22T15:29:36.782Z,36.07
2018-11-22T15:32:18.754Z,39.90
2018-11-22T15:35:00.675Z,36.53
2018-11-22T15:37:42.614Z,38.43
2018-11-22T15:40:26.012Z,36.07
2018-11-22T15:43:07.951Z,37.87
2018-11-22T15:45:50.037Z,36.43
2018-11-22T15:48:31.800Z,38.00
2018-11-22T15:51:13.480Z,40.47
2018-11-22T15:53:54.783Z,43.17
2018-11-22T15:56:36.907Z,37.53
2018-11-22T15:59:18.829Z,36.03
2018-11-22T16:04:42.829Z,39.67
2018-11-22T16:07:25.137Z,37.97
2018-11-22T16:10:06.895Z,38.37
2018-11-22T16:12:48.581Z,42.63
2018-11-22T16:15:31.413Z,42.47
2018-11-22T16:18:13.980Z,43.90
2018-11-22T16:20:56.378Z,52.27
2018-11-22T16:23:39.044Z,56.73
2018-11-22T16:26:21.308Z,51.27
2018-11-22T16:29:04.508Z,45.90
2018-11-22T16:31:47.379Z,48.97
2018-11-22T16:34:30.215Z,48.23
2018-11-22T16:37:12.749Z,49.30
2018-11-22T16:39:55.864Z,56.37
2018-11-22T16:42:36.655Z,54.13
2018-11-22T16:48:22.301Z,57.50
2018-11-22T16:51:07.274Z,59.10
2018-11-22T16:53:50.176Z,58.00
2018-11-22T16:56:31.450Z,58.27
2018-11-22T16:59:13.021Z,58.30
2018-11-22T17:01:55.893Z,57.30
2018-11-22T17:04:37.618Z,58.77
2018-11-22T17:07:20.980Z,59.83
2018-11-22T17:10:03.829Z,56.17
2018-11-22T17:12:48.453Z,61.23
2018-11-22T17:15:33.297Z,55.73
2018-11-22T17:18:16.894Z,56.00
2018-11-22T17:21:01.831Z,70.70
2018-11-22T17:23:44.696Z,83.07
2018-11-22T17:26:27.635Z,67.30
2018-11-22T17:29:09.444Z,57.57
2018-11-22T17:31:50.920Z,55.97
2018-11-22T17:34:32.670Z,61.23
2018-11-22T17:37:14.713Z,56.97
2018-11-22T17:39:56.809Z,59.87
2018-11-22T17:42:38.741Z,56.43
2018-11-22T17:48:22.442Z,59.33
2018-11-22T17:51:05.724Z,56.07
2018-11-22T17:53:48.468Z,59.43
2018-11-22T17:56:35.956Z,56.93
2018-11-22T17:59:18.279Z,58.70
2018-11-22T18:02:00.265Z,63.50
2018-11-22T18:04:43.043Z,67.53
2018-11-22T18:07:24.333Z,65.27
2018-11-22T18:10:05.596Z,62.60
2018-11-22T18:12:48.603Z,64.33
2018-11-22T18:15:32.249Z,63.40
2018-11-22T18:21:05.227Z,69.63
2018-11-22T18:23:47.728Z,70.83
2018-11-22T18:26:29.478Z,70.73
2018-11-22T18:29:11.228Z,65.20
2018-11-22T18:31:52.671Z,65.93
2018-11-22T18:34:34.627Z,60.93
2018-11-22T18:37:16.803Z,61.83
2018-11-22T18:39:58.433Z,64.73
2018-11-22T18:42:39.334Z,66.90
2018-11-22T18:48:20.973Z,74.20
2018-11-22T18:51:02.508Z,75.20
2018-11-22T18:53:43.464Z,69.00
2018-11-22T18:56:25.253Z,72.73
2018-11-22T18:59:06.530Z,72.77
2018-11-22T19:01:48.787Z,73.27
2018-11-22T19:04:30.598Z,72.03
2018-11-22T19:07:12.589Z,70.10
2018-11-22T19:09:54.673Z,72.23
2018-11-22T19:12:36.647Z,78.40
2018-11-22T19:15:17.466Z,72.47
2018-11-22T19:17:59.677Z,78.57
2018-11-22T19:20:42.751Z,78.33
2018-11-22T19:23:24.736Z,72.63
2018-11-22T19:26:06.790Z,73.07
2018-11-22T19:28:49.753Z,78.77
2018-11-22T19:31:31.715Z,79.87
2018-11-22T19:34:14.378Z,90.63
2018-11-22T19:36:56.541Z,77.27
2018-11-22T19:39:40.540Z,74.13
2018-11-22T19:42:22.787Z,77.13
2018-11-22T19:47:45.077Z,80.43
2018-11-22T19:50:28.916Z,86.43
2018-11-22T19:53:13.381Z,84.70
2018-11-22T19:55:56.680Z,86.27
2018-11-22T19:58:39.930Z,106.17
2018-11-22T20:01:21.759Z,83.87
2018-11-22T20:04:04.509Z,79.37
2018-11-22T20:06:47.513Z,81.07
2018-11-22T20:09:29.843Z,86.13
2018-11-22T20:12:13.757Z,78.37
2018-11-22T20:14:55.614Z,76.83
2018-11-22T20:17:38.989Z,73.03
2018-11-22T20:20:22.000Z,71.57
2018-11-22T20:23:05.141Z,69.47
2018-11-22T20:25:47.840Z,75.93
2018-11-22T20:28:31.426Z,69.00
2018-11-22T20:31:14.711Z,69.23
2018-11-22T20:33:58.218Z,68.00
2018-11-22T20:36:41.276Z,65.07
2018-11-22T20:39:23.573Z,61.57
2018-11-22T20:42:05.890Z,63.67
2018-11-22T20:44:50.453Z,66.83
2018-11-22T20:47:39.826Z,66.00
2018-11-22T20:50:24.206Z,67.90
2018-11-22T20:53:05.551Z,76.93
2018-11-22T20:55:47.486Z,76.87
2018-11-22T20:58:28.646Z,78.50
2018-11-22T21:01:10.776Z,79.47
2018-11-22T21:03:52.903Z,68.17
2018-11-22T21:06:34.629Z,60.30
2018-11-22T21:09:15.650Z,55.77
2018-11-22T21:11:57.772Z,58.30
2018-11-22T21:14:39.570Z,53.07
2018-11-22T21:17:21.383Z,58.93
2018-11-22T21:20:03.166Z,56.00
2018-11-22T21:22:44.390Z,52.40
2018-11-22T21:25:26.398Z,53.63
2018-11-22T21:28:08.442Z,53.50
2018-11-22T21:30:50.674Z,52.27
2018-11-22T21:33:32.572Z,51.10
2018-11-22T21:36:14.151Z,47.83
2018-11-22T21:38:55.828Z,46.73
2018-11-22T21:41:37.694Z,46.17
2018-11-22T21:44:21.757Z,44.77
2018-11-22T21:47:03.456Z,49.47
2018-11-22T21:49:45.032Z,45.97
2018-11-22T21:52:26.547Z,46.93
2018-11-22T21:57:48.705Z,45.87
2018-11-22T22:00:31.522Z,42.70
2018-11-22T22:03:13.179Z,45.10
2018-11-22T22:05:54.309Z,48.67
2018-11-22T22:08:35.390Z,55.07
2018-11-22T22:11:17.126Z,52.53
2018-11-22T22:13:57.821Z,51.27
2018-11-22T22:16:39.647Z,49.07
2018-11-22T22:19:21.094Z,47.30
2018-11-22T22:22:03.596Z,53.03
2018-11-22T22:24:45.044Z,50.90
2018-11-22T22:27:26.708Z,51.23
2018-11-22T22:30:08.106Z,47.10
2018-11-22T22:32:51.826Z,52.70
2018-11-22T22:35:33.430Z,62.47
2018-11-22T22:38:16.106Z,60.60
2018-11-22T22:40:59.820Z,50.57
2018-11-22T22:43:42.856Z,46.07
2018-11-22T22:46:25.737Z,43.67
2018-11-22T22:49:08.793Z,41.60
2018-11-22T22:51:52.658Z,45.17
2018-11-22T22:54:35.749Z,45.70
2018-11-22T22:57:18.611Z,43.47
2018-11-22T23:00:01.589Z,44.97
2018-11-22T23:02:44.448Z,44.37
2018-11-22T23:05:28.125Z,44.40
2018-11-22T23:08:09.213Z,45.80
2018-11-22T23:10:50.587Z,43.97
2018-11-22T23:13:32.584Z,45.40
2018-11-22T23:16:15.838Z,42.87
2018-11-22T23:18:56.941Z,44.97
2018-11-22T23:21:39.483Z,44.23
2018-11-22T23:24:21.395Z,44.27
2018-11-22T23:27:04.803Z,42.13
2018-11-22T23:29:46.822Z,40.50
2018-11-22T23:32:30.308Z,41.00
2018-11-22T23:35:12.169Z,40.77
2018-11-22T23:37:54.584Z,42.73
2018-11-22T23:40:36.505Z,43.20
2018-11-22T23:43:19.435Z,41.10
2018-11-22T23:46:01.203Z,41.03
2018-11-22T23:48:42.852Z,44.97
2018-11-22T23:51:24.654Z,40.60
2018-11-22T23:54:06.981Z,42.23
2018-11-22T23:56:54.615Z,43.40
2018-11-22T23:59:31.419Z,42.23
